createdAt,value
2022-10-13T00:00:45.577Z,98800.59
2022-10-13T00:03:17.031Z,98802.69
2022-10-13T00:05:49.654Z,98804.96
2022-10-13T00:08:22.110Z,98805.39
2022-10-13T00:10:53.129Z,98811.52
2022-10-13T00:13:27.361Z,98809.88
2022-10-13T00:15:57.943Z,98804.07
2022-10-13T00:18:31.552Z,98802.94
2022-10-13T00:21:02.058Z,98807.14
2022-10-13T00:23:32.676Z,98807.73
2022-10-13T00:26:05.535Z,98805.02
2022-10-13T00:28:36.314Z,98803.86
2022-10-13T00:31:10.697Z,98799.95
2022-10-13T00:33:41.181Z,98800.52
2022-10-13T00:36:11.977Z,98800.41
2022-10-13T00:38:42.422Z,98798.36
2022-10-13T00:41:12.956Z,98801.52
2022-10-13T00:43:58.092Z,98799.35
2022-10-13T00:46:30.582Z,98801.30
2022-10-13T00:49:05.648Z,98800.14
2022-10-13T00:51:39.657Z,98799.83
2022-10-13T00:54:13.177Z,98802.44
2022-10-13T00:56:43.844Z,98799.54
2022-10-13T00:59:19.089Z,98803.89
2022-10-13T01:01:49.914Z,98801.33
2022-10-13T01:04:22.745Z,98801.33
2022-10-13T01:06:53.347Z,98799.61
2022-10-13T01:09:23.841Z,98800.82
2022-10-13T01:12:02.563Z,98797.20
2022-10-13T01:14:37.546Z,98796.86
2022-10-13T01:17:13.085Z,98798.58
2022-10-13T01:20:17.768Z,98797.89
2022-10-13T01:22:58.797Z,98798.56
2022-10-13T01:25:45.597Z,98795.60
2022-10-13T01:28:40.142Z,98794.03
2022-10-13T01:31:16.293Z,98791.24
2022-10-13T01:33:51.940Z,98790.02
2022-10-13T01:36:30.176Z,98788.98
2022-10-13T01:39:04.814Z,98783.45
2022-10-13T01:41:38.811Z,98781.70
2022-10-13T01:44:16.345Z,98778.38
2022-10-13T01:46:54.442Z,98774.05
2022-10-13T01:49:28.531Z,98777.13
2022-10-13T01:52:02.766Z,98776.08
2022-10-13T01:54:34.909Z,98775.19
2022-10-13T01:57:05.689Z,98771.02
2022-10-13T01:59:38.756Z,98769.95
2022-10-13T02:02:13.676Z,98766.30
2022-10-13T02:04:52.528Z,98772.98
2022-10-13T02:07:26.803Z,98770.89
2022-10-13T02:10:02.253Z,98770.89
2022-10-13T02:12:36.324Z,98766.38
2022-10-13T02:15:08.817Z,98761.52
2022-10-13T02:17:39.318Z,98757.70
2022-10-13T02:20:11.780Z,98757.33
2022-10-13T02:22:44.437Z,98755.39
2022-10-13T02:25:15.020Z,98749.31
2022-10-13T02:27:46.051Z,98744.83
2022-10-13T02:30:25.475Z,98741.55
2022-10-13T02:32:55.924Z,98741.88
2022-10-13T02:35:26.334Z,98743.75
2022-10-13T02:37:56.746Z,98743.39
2022-10-13T02:40:27.512Z,98746.13
2022-10-13T02:42:58.048Z,98745.77
2022-10-13T02:45:28.464Z,98747.66
2022-10-13T02:47:59.036Z,98745.56
2022-10-13T02:50:29.625Z,98747.46
2022-10-13T02:53:00.344Z,98743.11
2022-10-13T02:55:31.966Z,98740.30
2022-10-13T02:58:02.977Z,98741.48
2022-10-13T03:00:33.504Z,98740.94
2022-10-13T03:03:04.329Z,98741.98
2022-10-13T03:05:35.629Z,98737.84
2022-10-13T03:08:06.657Z,98739.05
2022-10-13T03:10:37.118Z,98738.17
2022-10-13T03:13:07.679Z,98736.76
2022-10-13T03:15:38.309Z,98736.41
2022-10-13T03:18:09.694Z,98734.19
2022-10-13T03:20:40.162Z,98733.50
2022-10-13T03:23:10.618Z,98721.27
2022-10-13T03:25:41.404Z,98725.92
2022-10-13T03:28:15.508Z,98724.00
2022-10-13T03:30:47.083Z,98725.56
2022-10-13T03:33:18.030Z,98725.76
2022-10-13T03:35:48.721Z,98723.72
2022-10-13T03:38:19.423Z,98722.16
2022-10-13T03:40:50.358Z,98723.54
2022-10-13T03:43:20.992Z,98718.70
2022-10-13T03:45:58.491Z,98721.13
2022-10-13T03:48:45.031Z,98721.11
2022-10-13T03:51:17.525Z,98724.96
2022-10-13T03:53:53.754Z,98726.19
2022-10-13T03:56:26.012Z,98729.64
2022-10-13T03:58:58.307Z,98729.27
2022-10-13T04:01:31.034Z,98725.45
2022-10-13T04:04:03.294Z,98720.42
2022-10-13T04:06:34.423Z,98725.43
2022-10-13T04:09:05.177Z,98724.91
2022-10-13T04:11:35.804Z,98721.11
2022-10-13T04:20:01.517Z,98733.10
2022-10-13T04:22:32.371Z,98734.02
2022-10-13T04:25:03.380Z,98733.70
2022-10-13T04:27:34.180Z,98733.38
2022-10-13T04:30:09.472Z,98727.73
2022-10-13T04:32:42.302Z,98736.55
2022-10-13T04:35:15.024Z,98735.16
2022-10-13T04:37:45.476Z,98730.19
2022-10-13T04:40:16.234Z,98729.84
2022-10-13T04:42:46.843Z,98728.98
2022-10-13T04:45:17.393Z,98730.02
2022-10-13T04:47:53.484Z,98731.23
2022-10-13T04:50:25.626Z,98729.69
2022-10-13T04:53:02.572Z,98729.38
2022-10-13T04:55:33.507Z,98724.90
2022-10-13T04:58:04.232Z,98724.38
2022-10-13T05:00:34.910Z,98720.60
2022-10-13T05:03:05.648Z,98715.60
2022-10-13T05:05:38.687Z,98717.20
2022-10-13T05:08:07.797Z,98715.15
2022-10-13T05:10:38.373Z,98712.92
2022-10-13T05:13:08.971Z,98711.02
2022-10-13T05:15:41.242Z,98706.01
2022-10-13T05:18:11.651Z,98706.72
2022-10-13T05:20:42.079Z,98705.52
2022-10-13T05:23:12.557Z,98700.04
2022-10-13T05:25:43.002Z,98699.89
2022-10-13T05:28:16.749Z,98701.61
2022-10-13T05:30:47.664Z,98691.94
2022-10-13T05:33:18.277Z,98694.69
2022-10-13T05:42:04.684Z,98695.08
2022-10-13T05:44:36.450Z,98692.16
2022-10-13T05:47:07.752Z,98690.42
2022-10-13T05:49:39.705Z,98683.88
2022-10-13T05:52:11.587Z,98685.42
2022-10-13T05:54:44.098Z,98679.40
2022-10-13T05:57:14.407Z,98679.06
2022-10-13T05:59:51.764Z,98680.97
2022-10-13T06:02:23.761Z,98687.54
2022-10-13T06:04:56.881Z,98685.78
2022-10-13T06:07:27.460Z,98692.15
2022-10-13T06:09:58.910Z,98688.48
2022-10-13T06:12:29.442Z,98679.61
2022-10-13T06:14:59.876Z,98683.74
2022-10-13T06:17:30.514Z,98684.75
2022-10-13T06:20:00.971Z,98687.33
2022-10-13T06:22:31.715Z,98695.60
2022-10-13T06:25:02.408Z,98697.47
2022-10-13T06:27:33.566Z,98699.67
2022-10-13T06:30:04.344Z,98703.46
2022-10-13T06:32:35.008Z,98698.39
2022-10-13T06:35:06.295Z,98695.02
2022-10-13T06:37:36.987Z,98697.17
2022-10-13T06:40:10.694Z,98697.81
2022-10-13T06:42:41.337Z,98703.77
2022-10-13T06:45:13.394Z,98704.40
2022-10-13T06:47:43.965Z,98706.42
2022-10-13T06:50:14.977Z,98709.70
2022-10-13T06:52:45.526Z,98707.08
2022-10-13T06:55:16.946Z,98703.05
2022-10-13T06:57:47.864Z,98704.04
2022-10-13T07:00:19.111Z,98697.76
2022-10-13T07:02:53.725Z,98702.90
2022-10-13T07:05:25.162Z,98696.10
2022-10-13T07:07:55.886Z,98700.56
2022-10-13T07:10:26.390Z,98699.97
2022-10-13T07:12:56.923Z,98704.85
2022-10-13T07:15:28.857Z,98706.45
2022-10-13T07:17:59.503Z,98698.36
2022-10-13T07:20:31.111Z,98690.04
2022-10-13T07:23:02.892Z,98695.05
2022-10-13T07:25:33.667Z,98695.86
2022-10-13T07:28:04.433Z,98685.04
2022-10-13T07:30:35.105Z,98678.17
2022-10-13T07:33:05.775Z,98680.48
2022-10-13T07:35:38.936Z,98683.09
2022-10-13T07:38:09.996Z,98680.74
2022-10-13T07:40:40.718Z,98685.01
2022-10-13T07:43:11.181Z,98681.05
2022-10-13T07:45:41.723Z,98682.27
2022-10-13T07:48:12.428Z,98681.23
2022-10-13T07:50:43.179Z,98683.56
2022-10-13T07:53:13.655Z,98680.81
2022-10-13T07:55:44.201Z,98679.30
2022-10-13T07:58:14.996Z,98676.92
2022-10-13T08:00:45.487Z,98679.35
2022-10-13T08:03:16.045Z,98686.25
2022-10-13T08:05:46.515Z,98693.46
2022-10-13T08:08:17.049Z,98693.14
2022-10-13T08:10:47.811Z,98690.64
2022-10-13T08:13:18.422Z,98687.50
2022-10-13T08:15:49.112Z,98685.59
2022-10-13T08:18:19.757Z,98683.11
2022-10-13T08:20:50.306Z,98681.98
2022-10-13T08:23:21.840Z,98681.15
2022-10-13T08:25:53.926Z,98677.41
2022-10-13T08:28:28.362Z,98674.56
2022-10-13T08:30:59.413Z,98676.77
2022-10-13T08:33:29.914Z,98679.65
2022-10-13T08:36:00.475Z,98670.13
2022-10-13T08:38:31.047Z,98667.09
2022-10-13T08:41:01.659Z,98669.73
2022-10-13T08:43:34.766Z,98679.77
2022-10-13T08:46:05.534Z,98676.34
2022-10-13T08:48:37.399Z,98676.19
2022-10-13T08:51:09.038Z,98682.61
2022-10-13T08:53:42.681Z,98690.60
2022-10-13T08:56:19.306Z,98691.47
2022-10-13T08:58:51.630Z,98689.98
2022-10-13T09:01:23.728Z,98689.46
2022-10-13T09:03:56.577Z,98688.49
2022-10-13T09:06:28.820Z,98686.58
2022-10-13T09:09:02.492Z,98681.69
2022-10-13T09:11:35.951Z,98680.25
2022-10-13T09:14:08.530Z,98683.66
2022-10-13T09:16:41.543Z,98692.81
2022-10-13T09:19:23.794Z,98682.90
2022-10-13T09:21:55.698Z,98680.79
2022-10-13T09:24:27.863Z,98686.47
2022-10-13T09:27:08.374Z,98689.73
2022-10-13T09:29:43.097Z,98682.77
2022-10-13T09:32:23.804Z,98680.86
2022-10-13T09:34:55.548Z,98678.55
2022-10-13T09:37:26.686Z,98676.47
2022-10-13T09:40:13.456Z,98678.82
2022-10-13T09:42:44.172Z,98680.52
2022-10-13T09:45:18.239Z,98678.05
2022-10-13T09:47:55.351Z,98683.16
2022-10-13T09:50:27.919Z,98682.44
2022-10-13T09:53:17.329Z,98684.64
2022-10-13T09:55:49.564Z,98681.12
2022-10-13T09:58:26.269Z,98685.64
2022-10-13T10:00:57.150Z,98683.67
2022-10-13T10:03:30.723Z,98683.36
2022-10-13T10:06:03.483Z,98683.39
2022-10-13T10:08:38.814Z,98680.98
2022-10-13T10:11:14.997Z,98676.58
2022-10-13T10:13:46.123Z,98670.73
2022-10-13T10:16:24.744Z,98661.45
2022-10-13T10:19:00.409Z,98655.23
2022-10-13T10:21:34.758Z,98645.25
2022-10-13T10:24:13.894Z,98635.70
2022-10-13T10:26:50.047Z,98632.59
2022-10-13T10:29:27.506Z,98635.12
2022-10-13T10:32:11.224Z,98636.48
2022-10-13T10:34:46.684Z,98631.57
2022-10-13T10:37:25.595Z,98641.52
2022-10-13T10:40:04.678Z,98645.02
2022-10-13T10:42:55.325Z,98638.54
2022-10-13T10:45:29.437Z,98631.84
2022-10-13T10:48:03.127Z,98630.46
2022-10-13T10:50:34.614Z,98631.29
2022-10-13T10:53:10.157Z,98627.78
2022-10-13T10:55:47.677Z,98632.34
2022-10-13T10:58:28.527Z,98634.06
2022-10-13T11:01:04.114Z,98631.66
2022-10-13T11:03:44.747Z,98629.77
2022-10-13T11:06:37.427Z,98627.00
2022-10-13T11:09:11.136Z,98621.98
2022-10-13T11:11:43.218Z,98622.00
2022-10-13T11:14:34.487Z,98619.61
2022-10-13T11:17:19.728Z,98608.14
2022-10-13T11:19:51.482Z,98601.59
2022-10-13T11:22:24.370Z,98591.91
2022-10-13T11:25:00.350Z,98586.41
2022-10-13T11:27:45.203Z,98578.82
2022-10-13T11:30:43.321Z,98569.10
2022-10-13T11:33:37.496Z,98559.90
2022-10-13T11:36:44.830Z,98552.23
2022-10-13T11:39:38.605Z,98555.32
2022-10-13T11:42:27.837Z,98554.80
2022-10-13T11:45:00.435Z,98548.42
2022-10-13T11:47:53.852Z,98541.98
2022-10-13T11:50:33.719Z,98539.36
2022-10-13T11:53:16.223Z,98537.98
2022-10-13T11:55:53.005Z,98539.37
2022-10-13T11:58:25.199Z,98543.64
2022-10-13T12:00:58.640Z,98544.73
2022-10-13T12:03:33.768Z,98543.82
2022-10-13T12:06:06.386Z,98546.15
2022-10-13T12:08:38.311Z,98543.97
2022-10-13T12:11:10.618Z,98542.89
2022-10-13T12:13:41.157Z,98539.44
2022-10-13T12:16:13.368Z,98539.27
2022-10-13T12:18:45.654Z,98542.80
2022-10-13T12:21:19.930Z,98541.69
2022-10-13T12:23:51.782Z,98536.80
2022-10-13T12:26:24.258Z,98537.05
2022-10-13T12:28:56.156Z,98532.46
2022-10-13T12:31:28.933Z,98528.65
2022-10-13T12:33:58.525Z,98529.41
2022-10-13T12:36:31.715Z,98523.42
2022-10-13T12:39:05.680Z,98518.23
2022-10-13T12:41:35.756Z,98518.65
2022-10-13T12:44:07.061Z,98515.29
2022-10-13T12:46:46.672Z,98514.87
2022-10-13T12:51:57.538Z,98509.49
2022-10-13T12:54:30.035Z,98505.50
2022-10-13T12:57:02.768Z,98501.61
2022-10-13T12:59:31.886Z,98501.33
2022-10-13T13:02:05.345Z,98501.29
2022-10-13T13:04:43.232Z,98507.35
2022-10-13T13:07:29.961Z,98506.28
2022-10-13T13:10:10.737Z,98496.59
2022-10-13T13:12:41.289Z,98487.98
2022-10-13T13:15:34.330Z,98495.61
2022-10-13T13:18:25.667Z,98496.70
2022-10-13T13:20:56.481Z,98496.17
2022-10-13T13:23:33.304Z,98501.91
2022-10-13T13:26:07.129Z,98502.24
2022-10-13T13:28:37.625Z,98503.29
2022-10-13T13:31:09.843Z,98498.67
2022-10-13T13:33:40.337Z,98497.58
2022-10-13T13:36:17.512Z,98490.98
2022-10-13T13:38:50.501Z,98482.21
2022-10-13T13:41:21.168Z,98482.98
2022-10-13T13:43:51.649Z,98487.98
2022-10-13T13:46:24.501Z,98492.38
2022-10-13T13:48:57.328Z,98490.45
2022-10-13T13:51:27.735Z,98486.32
2022-10-13T13:53:58.385Z,98488.58
2022-10-13T13:56:28.890Z,98493.51
2022-10-13T13:58:59.445Z,98495.69
2022-10-13T14:01:29.894Z,98488.83
2022-10-13T14:04:00.575Z,98483.55
2022-10-13T14:06:31.388Z,98477.89
2022-10-13T14:09:02.978Z,98473.39
2022-10-13T14:11:33.670Z,98475.15
2022-10-13T14:14:04.353Z,98471.16
2022-10-13T14:16:34.791Z,98464.05
2022-10-13T14:19:07.429Z,98463.23
2022-10-13T14:21:37.923Z,98461.73
2022-10-13T14:24:10.797Z,98463.79
2022-10-13T14:26:41.485Z,98464.33
2022-10-13T14:29:11.956Z,98470.62
2022-10-13T14:31:42.410Z,98471.64
2022-10-13T14:34:16.567Z,98475.50
2022-10-13T14:36:47.243Z,98477.84
2022-10-13T14:39:19.546Z,98474.83
2022-10-13T14:41:50.260Z,98476.20
2022-10-13T14:44:21.207Z,98472.20
2022-10-13T14:46:52.361Z,98475.98
2022-10-13T14:49:22.838Z,98483.33
2022-10-13T14:51:54.007Z,98481.77
2022-10-13T14:54:24.545Z,98478.71
2022-10-13T14:56:55.062Z,98477.91
2022-10-13T14:59:25.412Z,98474.15
2022-10-13T15:01:55.730Z,98474.83
2022-10-13T15:04:26.406Z,98472.50
2022-10-13T15:06:56.767Z,98469.77
2022-10-13T15:09:38.983Z,98471.57
2022-10-13T15:12:19.974Z,98465.54
2022-10-13T15:14:50.680Z,98464.83
2022-10-13T15:17:21.179Z,98464.53
2022-10-13T15:19:51.861Z,98463.49
2022-10-13T15:22:22.781Z,98457.66
2022-10-13T15:24:53.590Z,98455.43
2022-10-13T15:27:24.246Z,98453.77
2022-10-13T15:29:54.862Z,98451.65
2022-10-13T15:32:25.494Z,98451.92
2022-10-13T15:35:04.514Z,98451.14
2022-10-13T15:37:37.730Z,98451.20
2022-10-13T15:40:10.543Z,98450.29
2022-10-13T15:42:39.490Z,98454.16
2022-10-13T15:45:11.797Z,98455.62
2022-10-13T15:47:42.560Z,98453.28
2022-10-13T15:50:13.101Z,98455.73
2022-10-13T15:52:43.768Z,98456.45
2022-10-13T15:55:14.724Z,98458.27
2022-10-13T15:57:45.751Z,98458.19
2022-10-13T16:00:18.235Z,98460.96
2022-10-13T16:02:52.010Z,98458.00
2022-10-13T16:05:22.939Z,98459.33
2022-10-13T16:07:54.355Z,98466.03
2022-10-13T16:10:24.756Z,98464.71
2022-10-13T16:12:55.166Z,98469.48
2022-10-13T16:15:25.549Z,98461.92
2022-10-13T16:17:56.191Z,98462.30
2022-10-13T16:20:26.817Z,98460.70
2022-10-13T16:22:57.624Z,98460.80
2022-10-13T16:25:32.154Z,98462.34
2022-10-13T16:28:06.371Z,98459.94
2022-10-13T16:30:39.384Z,98465.70
2022-10-13T16:33:09.908Z,98462.98
2022-10-13T16:35:43.971Z,98462.80
2022-10-13T16:38:15.736Z,98465.39
2022-10-13T16:40:46.681Z,98462.20
2022-10-13T16:43:18.348Z,98458.45
2022-10-13T16:46:00.227Z,98456.48
2022-10-13T16:48:32.695Z,98459.91
2022-10-13T16:51:08.267Z,98455.75
2022-10-13T16:53:41.248Z,98454.38
2022-10-13T16:56:12.210Z,98456.13
2022-10-13T16:58:44.929Z,98457.02
2022-10-13T17:01:15.572Z,98455.89
2022-10-13T17:03:47.304Z,98454.23
2022-10-13T17:06:19.728Z,98456.86
2022-10-13T17:08:57.449Z,98457.02
2022-10-13T17:11:30.314Z,98455.77
2022-10-13T17:14:02.080Z,98452.49
2022-10-13T17:16:36.280Z,98454.05
2022-10-13T17:19:07.115Z,98456.20
2022-10-13T17:21:39.572Z,98454.69
2022-10-13T17:24:12.381Z,98455.08
2022-10-13T17:26:45.140Z,98455.95
2022-10-13T17:29:18.557Z,98457.13
2022-10-13T17:31:50.592Z,98453.58
2022-10-13T17:34:22.656Z,98456.02
2022-10-13T17:36:57.129Z,98453.80
2022-10-13T17:39:29.296Z,98455.08
2022-10-13T17:42:02.174Z,98453.87
2022-10-13T17:44:34.753Z,98456.98
2022-10-13T17:47:08.195Z,98453.98
2022-10-13T17:49:41.733Z,98454.66
2022-10-13T17:52:15.169Z,98457.11
2022-10-13T17:54:49.471Z,98456.42
2022-10-13T17:57:22.616Z,98456.30
2022-10-13T17:59:54.490Z,98450.22
2022-10-13T18:02:29.204Z,98447.55
2022-10-13T18:05:01.529Z,98449.60
2022-10-13T18:07:35.467Z,98446.30
2022-10-13T18:10:11.207Z,98446.85
2022-10-13T18:12:42.892Z,98449.30
2022-10-13T18:15:17.692Z,98443.94
2022-10-13T18:17:51.356Z,98447.25
2022-10-13T18:20:24.058Z,98447.59
2022-10-13T18:22:59.183Z,98444.30
2022-10-13T18:31:39.829Z,98439.04
2022-10-13T18:34:11.959Z,98438.30
2022-10-13T18:36:55.884Z,98436.60
2022-10-13T18:39:28.064Z,98437.02
2022-10-13T18:41:59.312Z,98438.17
2022-10-13T18:44:39.775Z,98439.48
2022-10-13T18:47:10.320Z,98441.27
2022-10-13T18:49:42.164Z,98443.71
2022-10-13T18:52:12.847Z,98442.49
2022-10-13T18:54:43.204Z,98442.34
2022-10-13T18:57:13.746Z,98441.15
2022-10-13T18:59:45.289Z,98441.20
2022-10-13T19:02:16.460Z,98446.95
2022-10-13T19:04:54.405Z,98438.95
2022-10-13T19:07:36.843Z,98435.79
2022-10-13T19:10:16.453Z,98433.86
2022-10-13T19:12:47.091Z,98432.81
2022-10-13T19:15:17.922Z,98438.21
2022-10-13T19:17:48.422Z,98440.55
2022-10-13T19:20:19.077Z,98431.58
2022-10-13T19:22:57.279Z,98427.96
2022-10-13T19:25:27.792Z,98438.52
2022-10-13T19:27:58.494Z,98432.41
2022-10-13T19:30:29.272Z,98433.97
2022-10-13T19:33:00.252Z,98433.50
2022-10-13T19:35:30.973Z,98438.27
2022-10-13T19:38:01.569Z,98438.10
2022-10-13T19:40:35.305Z,98438.80
2022-10-13T19:43:07.270Z,98438.27
2022-10-13T19:45:37.798Z,98434.29
2022-10-13T19:48:11.164Z,98434.35
2022-10-13T19:50:42.547Z,98434.00
2022-10-13T19:53:17.489Z,98432.59
2022-10-13T19:55:49.555Z,98434.15
2022-10-13T19:58:20.268Z,98429.77
2022-10-13T20:00:52.125Z,98426.48
2022-10-13T20:03:22.683Z,98421.67
2022-10-13T20:05:55.404Z,98420.84
2022-10-13T20:08:26.013Z,98417.23
2022-10-13T20:11:00.765Z,98426.63
2022-10-13T20:13:31.591Z,98425.77
2022-10-13T20:16:05.188Z,98433.89
2022-10-13T20:18:36.377Z,98440.15
2022-10-13T20:21:08.721Z,98439.16
2022-10-13T20:23:40.697Z,98435.41
2022-10-13T20:26:13.929Z,98442.38
2022-10-13T20:28:45.608Z,98444.52
2022-10-13T20:31:18.944Z,98443.99
2022-10-13T20:33:50.626Z,98446.90
2022-10-13T20:36:22.286Z,98446.62
2022-10-13T20:38:52.993Z,98447.75
2022-10-13T20:41:25.676Z,98449.48
2022-10-13T20:43:58.053Z,98450.66
2022-10-13T20:46:29.022Z,98445.05
2022-10-13T20:49:15.042Z,98445.53
2022-10-13T20:51:45.661Z,98445.48
2022-10-13T20:54:17.306Z,98443.77
2022-10-13T20:56:48.156Z,98440.42
2022-10-13T20:59:18.813Z,98442.14
2022-10-13T21:01:49.332Z,98439.05
2022-10-13T21:04:20.184Z,98437.56
2022-10-13T21:06:50.971Z,98435.38
2022-10-13T21:09:21.590Z,98431.60
2022-10-13T21:11:52.248Z,98427.42
2022-10-13T21:14:22.856Z,98423.98
2022-10-13T21:16:53.450Z,98428.73
2022-10-13T21:19:24.123Z,98432.72
2022-10-13T21:21:54.531Z,98430.02
2022-10-13T21:24:24.994Z,98430.77
2022-10-13T21:26:55.428Z,98431.64
2022-10-13T21:29:26.845Z,98432.48
2022-10-13T21:31:57.680Z,98434.52
2022-10-13T21:34:28.437Z,98432.37
2022-10-13T21:36:58.953Z,98433.95
2022-10-13T21:39:29.492Z,98437.11
2022-10-13T21:41:59.874Z,98439.21
2022-10-13T21:44:31.474Z,98435.70
2022-10-13T21:47:02.146Z,98435.00
2022-10-13T21:49:32.972Z,98433.83
2022-10-13T21:52:03.598Z,98436.34
2022-10-13T21:54:34.388Z,98436.42
2022-10-13T21:57:04.961Z,98440.73
2022-10-13T21:59:35.572Z,98439.49
2022-10-13T22:02:06.228Z,98439.66
2022-10-13T22:04:37.117Z,98437.55
2022-10-13T22:07:08.067Z,98436.48
2022-10-13T22:09:38.663Z,98435.79
2022-10-13T22:12:09.383Z,98438.83
2022-10-13T22:14:39.954Z,98437.91
2022-10-13T22:17:10.398Z,98434.89
2022-10-13T22:19:40.837Z,98431.55
2022-10-13T22:22:11.299Z,98431.37
2022-10-13T22:24:41.818Z,98431.16
2022-10-13T22:27:12.485Z,98429.59
2022-10-13T22:29:43.071Z,98427.58
2022-10-13T22:32:13.807Z,98427.31
2022-10-13T22:34:46.249Z,98429.10
2022-10-13T22:37:17.290Z,98431.73
2022-10-13T22:39:47.887Z,98429.14
2022-10-13T22:42:18.638Z,98427.23
2022-10-13T22:44:49.245Z,98425.82
2022-10-13T22:47:20.083Z,98425.48
2022-10-13T22:49:50.928Z,98426.87
2022-10-13T22:52:22.461Z,98425.27
2022-10-13T22:54:53.991Z,98422.23
2022-10-13T22:57:25.070Z,98424.80
2022-10-13T22:59:55.867Z,98424.94
2022-10-13T23:02:26.361Z,98423.17
2022-10-13T23:04:56.789Z,98423.49
2022-10-13T23:07:27.385Z,98425.56
2022-10-13T23:09:57.757Z,98422.23
2022-10-13T23:12:28.135Z,98424.13
2022-10-13T23:14:58.748Z,98426.86
2022-10-13T23:17:29.327Z,98418.80
2022-10-13T23:20:00.131Z,98418.96
2022-10-13T23:22:30.776Z,98412.55
2022-10-13T23:25:01.358Z,98415.04
2022-10-13T23:27:32.044Z,98416.23
2022-10-13T23:30:02.801Z,98417.27
2022-10-13T23:32:34.891Z,98417.08
2022-10-13T23:35:05.865Z,98415.55
2022-10-13T23:37:36.450Z,98415.20
2022-10-13T23:40:08.548Z,98413.75
2022-10-13T23:42:39.063Z,98414.16
2022-10-13T23:45:10.936Z,98416.95
2022-10-13T23:47:41.390Z,98418.86
2022-10-13T23:50:12.422Z,98415.67
2022-10-13T23:52:42.847Z,98416.85
2022-10-13T23:55:13.318Z,98418.02
2022-10-13T23:57:43.925Z,98418.21
